createdAt,value
2019-05-11T00:02:15.129Z,10.37
2019-05-11T00:04:45.361Z,10.39
2019-05-11T00:07:15.644Z,10.42
2019-05-11T00:09:57.475Z,10.42
2019-05-11T00:12:17.901Z,10.43
2019-05-11T00:14:48.168Z,10.46
2019-05-11T00:17:18.336Z,10.39
2019-05-11T00:19:48.442Z,10.35
2019-05-11T00:22:18.716Z,10.35
2019-05-11T00:24:49.010Z,10.34
2019-05-11T00:27:19.197Z,10.32
2019-05-11T00:29:49.372Z,10.30
2019-05-11T00:32:22.756Z,10.30
2019-05-11T00:34:51.434Z,10.13
2019-05-11T00:37:21.694Z,10.13
2019-05-11T00:39:51.973Z,10.06
2019-05-11T00:42:22.331Z,10.02
2019-05-11T00:44:52.511Z,10.01
2019-05-11T00:47:22.728Z,9.99
2019-05-11T00:49:52.857Z,10.00
2019-05-11T00:52:23.031Z,9.95
2019-05-11T00:54:53.209Z,9.90
2019-05-11T00:57:23.553Z,9.75
2019-05-11T00:59:53.779Z,9.71
2019-05-11T01:02:24.154Z,9.66
2019-05-11T01:04:54.327Z,9.61
2019-05-11T01:07:24.490Z,9.59
2019-05-11T01:09:55.381Z,9.55
2019-05-11T01:12:25.628Z,9.53
2019-05-11T01:14:55.769Z,9.51
2019-05-11T01:17:25.999Z,9.53
2019-05-11T01:19:56.193Z,9.45
2019-05-11T01:22:26.375Z,9.49
2019-05-11T01:24:56.934Z,9.38
2019-05-11T01:27:27.111Z,9.41
2019-05-11T01:29:57.573Z,9.37
2019-05-11T01:32:28.046Z,9.34
2019-05-11T01:34:58.348Z,9.28
2019-05-11T01:37:28.532Z,9.32
2019-05-11T01:39:58.747Z,9.26
2019-05-11T01:42:28.884Z,9.32
2019-05-11T01:44:59.073Z,9.30
2019-05-11T01:47:29.287Z,9.21
2019-05-11T01:49:59.515Z,9.26
2019-05-11T01:52:29.791Z,9.24
2019-05-11T01:54:59.999Z,9.26
2019-05-11T01:57:30.452Z,9.26
2019-05-11T02:00:00.573Z,9.31
2019-05-11T02:02:31.303Z,9.34
2019-05-11T02:05:19.914Z,9.41
2019-05-11T02:07:50.243Z,9.50
2019-05-11T02:10:20.595Z,9.56
2019-05-11T02:12:51.034Z,9.63
2019-05-11T02:15:21.195Z,9.56
2019-05-11T02:17:51.462Z,9.60
2019-05-11T02:20:21.661Z,9.68
2019-05-11T02:22:51.878Z,9.65
2019-05-11T02:25:22.008Z,9.67
2019-05-11T02:27:52.247Z,9.65
2019-05-11T02:30:22.543Z,9.55
2019-05-11T02:32:53.331Z,9.49
2019-05-11T02:35:23.526Z,9.55
2019-05-11T02:37:53.851Z,9.64
2019-05-11T02:40:24.129Z,9.67
2019-05-11T02:42:54.301Z,9.67
2019-05-11T02:45:42.218Z,9.71
2019-05-11T02:48:12.988Z,9.74
2019-05-11T02:50:43.887Z,9.74
2019-05-11T02:53:14.751Z,9.78
2019-05-11T02:55:46.706Z,9.76
2019-05-11T02:58:16.928Z,9.79
2019-05-11T03:00:47.942Z,9.81
2019-05-11T03:03:18.184Z,9.80
2019-05-11T03:05:48.558Z,9.81
2019-05-11T03:08:18.678Z,9.84
2019-05-11T03:10:48.911Z,9.87
2019-05-11T03:13:19.189Z,9.86
2019-05-11T03:15:49.329Z,9.87
2019-05-11T03:18:19.504Z,9.89
2019-05-11T03:20:49.754Z,9.88
2019-05-11T03:23:20.007Z,9.90
2019-05-11T03:25:51.182Z,9.86
2019-05-11T03:28:21.374Z,9.85
2019-05-11T03:30:51.544Z,9.86
2019-05-11T03:33:21.752Z,9.87
2019-05-11T03:35:51.881Z,9.86
2019-05-11T03:38:22.118Z,9.88
2019-05-11T03:40:52.274Z,9.88
2019-05-11T03:43:22.429Z,9.90
2019-05-11T03:45:52.704Z,9.90
2019-05-11T03:48:23.047Z,9.90
2019-05-11T03:50:53.322Z,9.91
2019-05-11T03:53:23.940Z,9.91
2019-05-11T03:55:54.177Z,9.89
2019-05-11T03:58:26.267Z,9.88
2019-05-11T04:00:56.473Z,9.86
2019-05-11T04:03:26.810Z,9.81
2019-05-11T04:05:56.940Z,9.83
2019-05-11T04:08:27.271Z,9.86
2019-05-11T04:10:57.595Z,9.90
2019-05-11T04:13:27.885Z,9.94
2019-05-11T04:15:58.101Z,9.97
2019-05-11T04:18:28.363Z,10.00
2019-05-11T04:20:58.849Z,10.02
2019-05-11T04:23:29.216Z,10.04
2019-05-11T04:25:59.515Z,10.04
2019-05-11T04:28:29.800Z,10.06
2019-05-11T04:31:00.154Z,10.07
2019-05-11T04:33:32.975Z,10.06
2019-05-11T04:36:02.345Z,10.08
2019-05-11T04:38:32.605Z,10.11
2019-05-11T04:41:02.827Z,10.14
2019-05-11T04:43:33.142Z,10.17
2019-05-11T04:46:03.462Z,10.17
2019-05-11T04:48:33.971Z,10.21
2019-05-11T04:51:04.304Z,10.29
2019-05-11T04:53:34.670Z,10.29
2019-05-11T04:56:06.537Z,10.27
2019-05-11T04:58:36.904Z,10.30
2019-05-11T05:01:07.439Z,10.32
2019-05-11T05:03:40.785Z,10.32
2019-05-11T05:06:21.853Z,10.34
2019-05-11T05:08:41.572Z,10.35
2019-05-11T05:11:12.133Z,10.45
2019-05-11T05:13:42.267Z,10.49
2019-05-11T05:16:12.480Z,10.57
2019-05-11T05:18:42.714Z,10.63
2019-05-11T05:21:13.007Z,10.71
2019-05-11T05:23:43.817Z,10.87
2019-05-11T05:26:14.772Z,11.00
2019-05-11T05:28:45.894Z,11.18
2019-05-11T05:31:16.458Z,11.32
2019-05-11T05:33:46.657Z,11.46
2019-05-11T05:36:16.858Z,11.59
2019-05-11T05:38:47.081Z,11.61
2019-05-11T05:41:17.263Z,11.64
2019-05-11T05:43:47.452Z,11.65
2019-05-11T05:46:17.809Z,11.69
2019-05-11T05:48:47.955Z,11.78
2019-05-11T05:51:18.138Z,11.90
2019-05-11T05:53:48.407Z,12.11
2019-05-11T05:56:18.745Z,12.27
2019-05-11T05:58:49.325Z,12.37
2019-05-11T06:01:19.618Z,12.57
2019-05-11T06:03:50.151Z,12.75
2019-05-11T06:06:20.714Z,12.78
2019-05-11T06:08:51.163Z,12.83
2019-05-11T06:11:21.508Z,12.83
2019-05-11T06:13:51.720Z,12.91
2019-05-11T06:16:22.057Z,13.01
2019-05-11T06:18:52.213Z,13.11
2019-05-11T06:21:22.365Z,13.23
2019-05-11T06:23:52.628Z,13.31
2019-05-11T06:26:22.979Z,13.33
2019-05-11T06:28:53.208Z,13.27
2019-05-11T06:31:23.803Z,13.25
2019-05-11T06:33:54.113Z,13.36
2019-05-11T06:36:24.449Z,13.42
2019-05-11T06:38:54.754Z,14.30
2019-05-11T06:41:25.005Z,15.41
2019-05-11T06:44:01.901Z,16.55
2019-05-11T06:46:27.239Z,17.59
2019-05-11T06:48:57.455Z,17.76
2019-05-11T06:51:27.909Z,17.53
2019-05-11T06:53:58.634Z,17.87
2019-05-11T06:56:29.053Z,18.58
2019-05-11T06:58:59.213Z,19.23
2019-05-11T07:01:33.100Z,20.16
2019-05-11T07:04:03.389Z,20.64
2019-05-11T07:06:33.605Z,19.62
2019-05-11T07:09:05.465Z,19.39
2019-05-11T07:11:35.998Z,19.46
2019-05-11T07:14:19.841Z,19.34
2019-05-11T07:16:38.178Z,19.53
2019-05-11T07:19:08.413Z,19.27
2019-05-11T07:21:39.124Z,19.11
2019-05-11T07:24:09.810Z,19.32
2019-05-11T07:26:40.263Z,19.09
2019-05-11T07:29:10.568Z,18.44
2019-05-11T07:31:40.767Z,19.46
2019-05-11T07:34:11.158Z,20.87
2019-05-11T07:36:41.769Z,21.24
2019-05-11T07:39:12.334Z,20.21
2019-05-11T07:41:42.818Z,20.23
2019-05-11T07:44:13.283Z,19.98
2019-05-11T07:46:43.757Z,19.90
2019-05-11T07:49:13.934Z,20.10
2019-05-11T07:51:44.224Z,19.95
2019-05-11T07:54:14.468Z,19.42
2019-05-11T07:56:44.815Z,19.90
2019-05-11T07:59:15.285Z,21.82
2019-05-11T08:01:47.973Z,23.14
2019-05-11T08:04:18.460Z,23.27
2019-05-11T08:06:49.011Z,23.68
2019-05-11T08:09:19.475Z,23.97
2019-05-11T08:11:49.649Z,24.12
2019-05-11T08:14:20.032Z,25.26
2019-05-11T08:16:50.236Z,23.03
2019-05-11T08:19:20.674Z,22.29
2019-05-11T08:21:51.277Z,22.54
2019-05-11T08:24:21.588Z,22.75
2019-05-11T08:26:51.963Z,21.28
2019-05-11T08:29:22.258Z,20.51
2019-05-11T08:31:52.422Z,20.56
2019-05-11T08:34:22.812Z,20.40
2019-05-11T08:36:53.400Z,20.09
2019-05-11T08:39:23.764Z,19.39
2019-05-11T08:41:54.094Z,19.33
2019-05-11T08:44:24.290Z,19.74
2019-05-11T08:46:54.542Z,19.64
2019-05-11T08:49:24.844Z,19.78
2019-05-11T08:51:54.991Z,20.16
2019-05-11T08:54:25.474Z,20.08
2019-05-11T08:56:58.522Z,20.01
2019-05-11T08:59:28.997Z,19.37
2019-05-11T09:01:59.386Z,19.19
2019-05-11T09:04:29.651Z,19.07
2019-05-11T09:06:59.803Z,18.86
2019-05-11T09:09:29.970Z,20.37
2019-05-11T09:12:00.254Z,20.50
2019-05-11T09:14:32.903Z,20.15
2019-05-11T09:17:04.317Z,19.97
2019-05-11T09:19:34.625Z,20.33
2019-05-11T09:22:04.858Z,20.20
2019-05-11T09:24:38.442Z,20.18
2019-05-11T09:27:08.292Z,20.04
2019-05-11T09:29:39.535Z,18.90
2019-05-11T09:32:10.018Z,18.30
2019-05-11T09:34:40.664Z,17.52
2019-05-11T09:37:11.328Z,16.41
2019-05-11T09:39:41.764Z,15.69
2019-05-11T09:42:12.184Z,16.40
2019-05-11T09:44:42.727Z,16.41
2019-05-11T09:47:13.144Z,18.92
2019-05-11T09:49:47.769Z,20.52
2019-05-11T09:52:18.204Z,22.55
2019-05-11T09:54:48.722Z,23.92
2019-05-11T09:57:20.157Z,24.34
2019-05-11T09:59:50.660Z,25.93
2019-05-11T10:02:21.281Z,26.80
2019-05-11T10:04:51.685Z,26.17
2019-05-11T10:07:21.898Z,27.03
2019-05-11T10:09:52.219Z,25.61
2019-05-11T10:12:22.733Z,26.30
2019-05-11T10:14:54.620Z,26.03
2019-05-11T10:17:25.129Z,27.11
2019-05-11T10:19:58.314Z,26.93
2019-05-11T10:22:28.040Z,26.12
2019-05-11T10:24:58.460Z,26.09
2019-05-11T10:27:28.755Z,25.94
2019-05-11T10:29:59.324Z,23.92
2019-05-11T10:32:29.833Z,22.50
2019-05-11T10:35:00.185Z,22.22
2019-05-11T10:37:30.535Z,22.70
2019-05-11T10:40:00.772Z,22.01
2019-05-11T10:42:31.165Z,22.12
2019-05-11T10:45:01.790Z,21.86
2019-05-11T10:47:32.202Z,21.29
2019-05-11T10:50:02.396Z,20.92
2019-05-11T10:52:32.637Z,22.09
2019-05-11T10:55:03.329Z,23.75
2019-05-11T10:57:34.649Z,23.84
2019-05-11T11:00:08.288Z,22.78
2019-05-11T11:02:38.630Z,21.03
2019-05-11T11:05:09.180Z,21.77
2019-05-11T11:07:40.633Z,23.42
2019-05-11T11:10:11.093Z,24.18
2019-05-11T11:12:41.439Z,23.30
2019-05-11T11:15:12.249Z,23.68
2019-05-11T11:17:42.496Z,23.78
2019-05-11T11:20:13.184Z,22.48
2019-05-11T11:22:44.355Z,21.75
2019-05-11T11:25:15.069Z,21.39
2019-05-11T11:27:45.348Z,21.59
2019-05-11T11:30:18.091Z,21.61
2019-05-11T11:32:48.457Z,23.19
2019-05-11T11:35:19.017Z,24.91
2019-05-11T11:37:49.606Z,25.73
2019-05-11T11:40:20.070Z,23.47
2019-05-11T11:42:50.373Z,22.17
2019-05-11T11:45:20.965Z,21.74
2019-05-11T11:47:52.303Z,21.62
2019-05-11T11:50:22.654Z,21.32
2019-05-11T11:52:52.900Z,21.00
2019-05-11T11:55:23.352Z,20.60
2019-05-11T11:57:54.159Z,20.78
2019-05-11T12:00:24.407Z,20.27
2019-05-11T12:02:54.953Z,20.30
2019-05-11T12:05:25.565Z,20.32
2019-05-11T12:07:57.865Z,21.86
2019-05-11T12:10:28.711Z,23.26
2019-05-11T12:12:59.166Z,23.48
2019-05-11T12:20:04.427Z,23.16
2019-05-11T12:22:34.658Z,22.72
2019-05-11T12:25:05.045Z,23.70
2019-05-11T12:27:35.423Z,23.47
2019-05-11T12:30:09.003Z,23.26
2019-05-11T12:32:44.104Z,23.33
2019-05-11T12:35:14.605Z,21.75
2019-05-11T12:37:44.857Z,21.53
2019-05-11T12:40:18.029Z,21.81
2019-05-11T12:42:49.058Z,23.47
2019-05-11T12:45:20.141Z,22.52
2019-05-11T12:47:50.614Z,22.15
2019-05-11T12:50:21.609Z,21.77
2019-05-11T12:52:51.815Z,21.99
2019-05-11T12:55:22.151Z,23.58
2019-05-11T12:57:52.751Z,22.53
2019-05-11T13:00:23.556Z,23.02
2019-05-11T13:02:54.054Z,23.44
2019-05-11T13:05:25.416Z,22.21
2019-05-11T13:07:55.926Z,22.30
2019-05-11T13:10:28.273Z,23.13
2019-05-11T13:12:58.394Z,24.27
2019-05-11T13:15:28.726Z,24.87
2019-05-11T13:17:59.282Z,23.27
2019-05-11T13:20:29.595Z,22.67
2019-05-11T13:22:59.962Z,21.58
2019-05-11T13:25:30.360Z,21.44
2019-05-11T13:28:00.930Z,20.40
2019-05-11T13:30:31.239Z,20.01
2019-05-11T13:33:01.700Z,19.74
2019-05-11T13:35:32.020Z,19.18
2019-05-11T13:38:02.376Z,19.51
2019-05-11T13:40:32.843Z,20.08
2019-05-11T13:43:03.334Z,20.22
2019-05-11T13:45:33.716Z,20.23
2019-05-11T13:48:04.039Z,19.42
2019-05-11T13:50:34.391Z,17.85
2019-05-11T13:53:04.925Z,16.46
2019-05-11T13:55:35.396Z,15.29
2019-05-11T13:58:05.699Z,15.22
2019-05-11T14:00:37.867Z,15.24
2019-05-11T14:03:09.049Z,15.19
2019-05-11T14:05:39.389Z,14.58
2019-05-11T14:08:09.571Z,14.94
2019-05-11T14:10:42.376Z,15.20
2019-05-11T14:13:12.614Z,15.06
2019-05-11T14:15:43.020Z,14.92
2019-05-11T14:18:13.393Z,15.07
2019-05-11T14:20:43.827Z,15.22
2019-05-11T14:23:14.447Z,14.95
2019-05-11T14:25:44.899Z,15.67
2019-05-11T14:28:15.122Z,15.88
2019-05-11T14:30:45.380Z,16.40
2019-05-11T14:33:18.063Z,16.22
2019-05-11T14:35:48.884Z,16.61
2019-05-11T14:38:19.877Z,16.92
2019-05-11T14:40:50.064Z,17.01
2019-05-11T14:43:20.872Z,17.15
2019-05-11T14:45:54.204Z,17.41
2019-05-11T14:48:27.628Z,17.57
2019-05-11T14:50:59.356Z,17.40
2019-05-11T14:53:29.546Z,17.30
2019-05-11T14:55:59.983Z,17.43
2019-05-11T14:58:30.494Z,17.55
2019-05-11T15:01:00.935Z,16.85
2019-05-11T15:03:33.244Z,16.40
2019-05-11T15:06:03.496Z,15.93
2019-05-11T15:08:33.814Z,15.71
2019-05-11T15:11:04.411Z,15.16
2019-05-11T15:13:34.974Z,14.82
2019-05-11T15:16:08.104Z,15.03
2019-05-11T15:18:41.931Z,15.06
2019-05-11T15:21:10.403Z,15.09
2019-05-11T15:23:40.991Z,15.44
2019-05-11T15:26:11.690Z,15.11
2019-05-11T15:28:42.218Z,15.24
2019-05-11T15:31:12.558Z,14.62
2019-05-11T15:33:43.037Z,14.65
2019-05-11T15:36:13.671Z,14.69
2019-05-11T15:38:44.386Z,14.53
2019-05-11T15:41:14.808Z,14.58
2019-05-11T15:43:47.753Z,14.88
2019-05-11T15:46:19.731Z,15.30
2019-05-11T15:48:58.743Z,15.21
2019-05-11T15:51:22.555Z,15.28
2019-05-11T15:53:52.971Z,15.65
2019-05-11T15:56:23.773Z,15.46
2019-05-11T15:58:54.112Z,15.00
2019-05-11T16:01:24.297Z,15.32
2019-05-11T16:03:54.694Z,15.39
2019-05-11T16:06:24.985Z,15.41
2019-05-11T16:08:55.504Z,15.31
2019-05-11T16:11:27.806Z,15.05
2019-05-11T16:13:58.608Z,15.40
2019-05-11T16:16:29.111Z,15.41
2019-05-11T16:19:10.568Z,15.32
2019-05-11T16:21:31.806Z,15.01
2019-05-11T16:24:02.211Z,15.23
2019-05-11T16:26:32.701Z,15.09
2019-05-11T16:29:03.200Z,15.22
2019-05-11T16:31:33.718Z,15.29
2019-05-11T16:34:04.297Z,14.84
2019-05-11T16:36:34.742Z,14.99
2019-05-11T16:39:10.338Z,15.21
2019-05-11T16:41:40.085Z,15.57
2019-05-11T16:44:10.409Z,15.83
2019-05-11T16:46:40.855Z,15.75
2019-05-11T16:49:24.878Z,15.48
2019-05-11T16:51:44.867Z,15.51
2019-05-11T16:54:15.254Z,15.43
2019-05-11T16:56:45.563Z,15.14
2019-05-11T16:59:18.031Z,14.95
2019-05-11T17:01:48.457Z,14.59
2019-05-11T17:04:18.846Z,14.28
2019-05-11T17:06:49.254Z,14.37
2019-05-11T17:09:19.863Z,13.62
2019-05-11T17:11:50.161Z,13.34
2019-05-11T17:14:20.634Z,13.03
2019-05-11T17:16:51.509Z,12.71
2019-05-11T17:19:21.833Z,12.38
2019-05-11T17:21:52.002Z,11.98
2019-05-11T17:24:22.449Z,11.61
2019-05-11T17:26:53.367Z,11.29
2019-05-11T17:29:24.861Z,11.38
2019-05-11T17:31:57.906Z,11.14
2019-05-11T17:34:28.463Z,11.19
2019-05-11T17:37:00.151Z,11.11
2019-05-11T17:39:30.506Z,11.43
2019-05-11T17:42:01.278Z,11.17
2019-05-11T17:44:31.661Z,11.22
2019-05-11T17:47:02.086Z,10.77
2019-05-11T17:49:32.421Z,10.61
2019-05-11T17:52:02.631Z,10.51
2019-05-11T17:54:33.289Z,10.81
2019-05-11T17:57:03.823Z,10.73
2019-05-11T17:59:34.385Z,10.73
2019-05-11T18:02:05.016Z,10.69
2019-05-11T18:04:35.525Z,10.60
2019-05-11T18:07:05.949Z,10.67
2019-05-11T18:09:38.102Z,10.70
2019-05-11T18:12:09.865Z,10.63
2019-05-11T18:14:40.858Z,10.39
2019-05-11T18:17:11.352Z,10.32
2019-05-11T18:19:42.265Z,10.50
2019-05-11T18:22:13.145Z,10.49
2019-05-11T18:24:43.690Z,10.38
2019-05-11T18:27:14.107Z,10.02
2019-05-11T18:29:44.962Z,9.95
2019-05-11T18:32:15.233Z,10.08
2019-05-11T18:34:48.333Z,10.17
2019-05-11T18:37:18.647Z,10.30
2019-05-11T18:39:52.812Z,10.37
2019-05-11T18:42:22.955Z,10.46
2019-05-11T18:44:57.383Z,10.48
2019-05-11T18:47:26.971Z,10.51
2019-05-11T18:49:58.732Z,10.57
2019-05-11T18:52:29.518Z,10.54
2019-05-11T18:55:00.028Z,10.51
2019-05-11T18:57:30.663Z,10.47
2019-05-11T19:00:01.353Z,10.38
2019-05-11T19:02:32.116Z,10.37
2019-05-11T19:05:02.695Z,10.33
2019-05-11T19:07:33.192Z,10.36
2019-05-11T19:10:03.766Z,10.35
2019-05-11T19:12:34.325Z,10.37
2019-05-11T19:15:05.057Z,10.25
2019-05-11T19:17:38.270Z,10.23
2019-05-11T19:20:08.690Z,10.18
2019-05-11T19:22:42.302Z,10.21
2019-05-11T19:25:13.737Z,10.09
2019-05-11T19:27:44.046Z,10.13
2019-05-11T19:30:15.346Z,10.00
2019-05-11T19:32:48.678Z,10.07
2019-05-11T19:35:21.747Z,10.04
2019-05-11T19:37:54.711Z,10.03
2019-05-11T19:40:25.987Z,9.97
2019-05-11T19:42:59.146Z,9.94
2019-05-11T19:45:30.242Z,9.97
2019-05-11T19:48:01.438Z,10.00
2019-05-11T19:50:33.166Z,9.97
2019-05-11T19:53:04.176Z,9.90
2019-05-11T19:55:35.857Z,9.90
2019-05-11T19:58:06.812Z,9.83
2019-05-11T20:00:38.117Z,9.81
2019-05-11T20:03:14.630Z,9.68
2019-05-11T20:05:48.546Z,9.70
2019-05-11T20:08:20.723Z,9.56
2019-05-11T20:10:52.856Z,9.50
2019-05-11T20:13:23.741Z,9.59
2019-05-11T20:15:57.836Z,9.53
2019-05-11T20:18:28.863Z,9.39
2019-05-11T20:21:14.274Z,9.45
2019-05-11T20:23:32.856Z,9.51
2019-05-11T20:26:03.493Z,9.54
2019-05-11T20:28:37.767Z,9.48
2019-05-11T20:31:08.170Z,9.46
2019-05-11T20:33:38.712Z,9.45
2019-05-11T20:36:09.518Z,9.47
2019-05-11T20:38:42.268Z,9.45
2019-05-11T20:41:12.746Z,9.39
2019-05-11T20:43:43.605Z,9.37
2019-05-11T20:46:14.354Z,9.39
2019-05-11T20:48:45.021Z,9.40
2019-05-11T20:51:29.723Z,9.34
2019-05-11T20:53:49.012Z,9.40
2019-05-11T20:56:19.766Z,9.42
2019-05-11T20:58:59.302Z,9.38
2019-05-11T21:01:29.655Z,9.37
2019-05-11T21:04:01.539Z,9.43
2019-05-11T21:06:32.193Z,9.37
2019-05-11T21:09:02.676Z,9.31
2019-05-11T21:11:33.500Z,9.22
2019-05-11T21:14:04.040Z,9.15
2019-05-11T21:16:34.778Z,9.15
2019-05-11T21:19:05.322Z,9.16
2019-05-11T21:21:49.541Z,9.17
2019-05-11T21:24:08.620Z,9.16
2019-05-11T21:26:39.241Z,9.15
2019-05-11T21:29:09.609Z,9.19
2019-05-11T21:31:41.035Z,9.11
2019-05-11T21:34:11.704Z,9.18
2019-05-11T21:36:42.253Z,9.11
2019-05-11T21:39:12.966Z,9.11
2019-05-11T21:41:43.476Z,9.04
2019-05-11T21:44:13.758Z,9.10
2019-05-11T21:46:44.009Z,9.09
2019-05-11T21:49:14.198Z,9.06
2019-05-11T21:51:44.665Z,9.13
2019-05-11T21:54:15.198Z,9.05
2019-05-11T21:56:48.780Z,9.10
2019-05-11T21:59:19.716Z,8.92
2019-05-11T22:01:50.159Z,8.98
2019-05-11T22:04:20.425Z,8.91
2019-05-11T22:06:51.067Z,8.87
2019-05-11T22:09:21.286Z,8.84
2019-05-11T22:11:51.646Z,8.94
2019-05-11T22:14:21.932Z,8.93
2019-05-11T22:16:52.211Z,8.86
2019-05-11T22:19:22.447Z,8.86
2019-05-11T22:21:52.625Z,8.83
2019-05-11T22:24:22.911Z,8.80
2019-05-11T22:26:53.101Z,8.76
2019-05-11T22:29:23.639Z,8.75
2019-05-11T22:31:54.345Z,8.77
2019-05-11T22:34:24.657Z,8.80
2019-05-11T22:36:55.186Z,8.70
2019-05-11T22:39:25.694Z,8.78
2019-05-11T22:41:56.080Z,8.71
2019-05-11T22:44:27.904Z,8.61
2019-05-11T22:46:58.359Z,8.61
2019-05-11T22:56:39.745Z,8.63
2019-05-11T22:59:10.090Z,8.59
2019-05-11T23:01:40.344Z,8.49
2019-05-11T23:04:10.704Z,8.59
2019-05-11T23:06:41.374Z,8.64
2019-05-11T23:09:11.566Z,8.65
2019-05-11T23:11:41.904Z,8.73
2019-05-11T23:14:12.272Z,8.67
2019-05-11T23:16:42.466Z,8.62
2019-05-11T23:19:13.461Z,8.57
2019-05-11T23:21:44.361Z,8.53
2019-05-11T23:24:14.721Z,8.55
2019-05-11T23:26:45.036Z,8.59
2019-05-11T23:29:15.377Z,8.49
2019-05-11T23:31:47.725Z,8.51
2019-05-11T23:34:18.567Z,8.56
2019-05-11T23:36:48.832Z,8.60
2019-05-11T23:39:19.143Z,8.59
2019-05-11T23:41:49.486Z,8.57
2019-05-11T23:44:20.351Z,8.58
2019-05-11T23:46:50.601Z,8.60
2019-05-11T23:49:20.857Z,8.58
2019-05-11T23:51:50.972Z,8.59
2019-05-11T23:54:21.117Z,8.52
2019-05-11T23:56:51.417Z,8.50
2019-05-11T23:59:21.698Z,8.53
